Accueil
METAR-TAF:

METAR-TAF

Aéroports :

Aéroport de Kagoshima

Kagoshima, Japon

latitude: 31-48N, longitude: 130-43E, altitude: 272 m

Observation

Le bulletin a été fait il y a 13 minutes, à 12:00 UTC
Vent 6 kt de ouest/nord-ouest
Température 13°C
Humidité 77%
Pression 1011 hPa
Visibilité 10 km ou plus
Quelques nuages à une hauteur de 2500 ft
Nuages épars à une hauteur de 7000 ft

METAR: RJFK 261200Z 29006KT 9999 FEW025 SCT070 13/09 Q1011 RMK 2CU025 4AC070 A2986

Heure: 21:13 (12:13 UTC)

Prévision

Le bulletin a été fait il y a 1 heure et 5 minutes, à 11:08 UTC
Prévision valable du 26 à 12 UTC au 27 à 18 UTC
Vent 11 kt de nord-ouest
Visibilité 10 km ou plus
Quelques nuages à une hauteur de 1500 ft
Nuages fragmentés à une hauteur de 2500 ft
Evoluant progressivement
du 27 à 09 UTC au 27 à 12 UTC
Vent 6 kt de est

TAF: RJFK 261108Z 2612/2718 31011KT 9999 FEW015 BKN025 BECMG 2709/2712 10006KT

Observations et prévisions météorologiques de plus de 4000 aéroports (messages METAR et TAF).

Les stations disponibles sont représentées par des disques jaunes et rouges sur la carte.

Passer la souris dessus pour voir le nom de la station.

Cliquer dessus pour voir les observations et prévisions météorologiques.

Pour changer de carte: cliquez sur les boutons verts avec une croix noire pour zoomer, sur le bouton vert avec un tiret pour effectuer un zoom arrière, ou sur les flèches vertes pour les cartes adjacentes.


METAR-TAF: